createdAt,value
2017-11-29T00:00:04.969Z,58.56
2017-11-29T00:05:03.540Z,58.18
2017-11-29T00:10:03.015Z,58.18
2017-11-29T00:15:03.466Z,58.09
2017-11-29T00:20:02.970Z,57.99
2017-11-29T00:25:03.717Z,57.8
2017-11-29T00:35:02.933Z,57.9
2017-11-29T00:40:03.492Z,57.42
2017-11-29T00:45:02.911Z,57.33
2017-11-29T00:50:03.384Z,57.23
2017-11-29T00:55:02.861Z,57.04
2017-11-29T01:00:03.484Z,57.23
2017-11-29T01:05:03.620Z,57.04
2017-11-29T01:10:03.304Z,56.76
2017-11-29T01:15:02.786Z,56.76
2017-11-29T01:20:03.241Z,56.67
2017-11-29T01:25:02.872Z,56.63
2017-11-29T01:30:03.315Z,56.35
2017-11-29T01:35:03.012Z,56.07
2017-11-29T01:40:03.551Z,56.07
2017-11-29T01:45:03.106Z,56.16
2017-11-29T01:50:03.688Z,55.98
2017-11-29T01:55:03.164Z,55.88
2017-11-29T02:00:02.932Z,55.88
2017-11-29T02:05:03.621Z,55.79
2017-11-29T02:10:03.194Z,55.69
2017-11-29T02:15:03.647Z,55.6
2017-11-29T02:20:03.194Z,55.88
2017-11-29T02:25:02.792Z,55.69
2017-11-29T02:30:03.475Z,55.6
2017-11-29T02:35:02.947Z,55.41
2017-11-29T02:40:03.612Z,55.31
2017-11-29T02:45:03.115Z,55.22
2017-11-29T02:50:03.562Z,55.22
2017-11-29T02:55:03.170Z,55.22
2017-11-29T03:00:03.791Z,55.12
2017-11-29T03:05:03.443Z,55.12
2017-11-29T03:10:03.071Z,55.03
2017-11-29T03:15:03.578Z,55.03
2017-11-29T03:20:03.323Z,54.84
2017-11-29T03:25:02.976Z,54.93
2017-11-29T03:30:03.609Z,54.84
2017-11-29T03:35:03.208Z,54.93
2017-11-29T03:40:03.734Z,54.74
2017-11-29T03:45:03.164Z,54.74
2017-11-29T03:50:03.801Z,54.65
2017-11-29T03:55:03.193Z,54.74
2017-11-29T04:00:03.785Z,54.55
2017-11-29T04:05:03.285Z,54.65
2017-11-29T04:10:03.781Z,54.74
2017-11-29T04:15:03.271Z,54.84
2017-11-29T04:20:02.860Z,54.84
2017-11-29T04:25:03.267Z,54.93
2017-11-29T04:30:02.937Z,54.93
2017-11-29T04:35:03.593Z,54.93
2017-11-29T04:40:03.229Z,54.93
2017-11-29T04:45:03.822Z,54.93
2017-11-29T04:50:03.348Z,54.84
2017-11-29T04:55:02.903Z,55.03
2017-11-29T05:00:03.708Z,55.12
2017-11-29T05:05:03.249Z,55.12
2017-11-29T05:10:03.712Z,55.12
2017-11-29T05:15:03.306Z,55.12
2017-11-29T05:20:02.778Z,55.31
2017-11-29T05:25:03.356Z,55.41
2017-11-29T05:30:03.006Z,55.41
2017-11-29T05:35:03.630Z,55.41
2017-11-29T05:40:03.200Z,55.31
2017-11-29T05:45:03.606Z,55.22
2017-11-29T05:50:03.101Z,55.22
2017-11-29T05:55:03.549Z,55.41
2017-11-29T06:00:03.056Z,55.5
2017-11-29T06:05:03.631Z,55.47
2017-11-29T06:10:03.153Z,55.31
2017-11-29T06:15:03.608Z,55.38
2017-11-29T06:20:03.157Z,55.38
2017-11-29T06:25:03.655Z,55.29
2017-11-29T06:30:03.256Z,55.19
2017-11-29T06:35:03.731Z,55.29
2017-11-29T06:40:03.328Z,55.29
2017-11-29T06:45:02.821Z,55.19
2017-11-29T06:50:03.446Z,55.19
2017-11-29T06:55:03.044Z,55.1
2017-11-29T07:00:03.766Z,54.93
2017-11-29T07:05:03.296Z,54.93
2017-11-29T07:10:02.931Z,54.93
2017-11-29T07:15:03.545Z,55.03
2017-11-29T07:20:03.022Z,55.03
2017-11-29T07:25:03.576Z,55.03
2017-11-29T07:30:02.985Z,55.03
2017-11-29T07:35:03.608Z,55.03
2017-11-29T07:40:03.228Z,55.12
2017-11-29T07:45:03.759Z,55.03
2017-11-29T07:50:03.305Z,54.93
2017-11-29T07:55:02.838Z,54.84
2017-11-29T08:00:03.307Z,54.84
2017-11-29T08:05:02.949Z,55.03
2017-11-29T08:10:03.552Z,54.93
2017-11-29T08:15:03.011Z,54.84
2017-11-29T08:20:03.580Z,54.74
2017-11-29T08:25:03.223Z,54.74
2017-11-29T08:30:03.791Z,54.55
2017-11-29T08:35:03.376Z,54.55
2017-11-29T08:40:02.995Z,54.46
2017-11-29T08:45:03.505Z,54.46
2017-11-29T08:50:02.986Z,54.65
2017-11-29T08:55:03.540Z,54.27
2017-11-29T09:00:02.950Z,54.18
2017-11-29T09:05:03.581Z,54.18
2017-11-29T09:10:03.088Z,54.08
2017-11-29T09:15:03.517Z,54.27
2017-11-29T09:20:02.959Z,54.37
2017-11-29T09:25:03.389Z,54.37
2017-11-29T09:30:03.076Z,54.27
2017-11-29T09:35:03.569Z,54.27
2017-11-29T09:40:03.119Z,54.18
2017-11-29T09:45:03.708Z,54.27
2017-11-29T09:50:03.317Z,54.18
2017-11-29T09:55:02.964Z,54.37
2017-11-29T10:00:03.593Z,54.37
2017-11-29T10:05:03.235Z,54.18
2017-11-29T10:10:03.046Z,54.18
2017-11-29T10:15:03.572Z,54.08
2017-11-29T10:20:03.239Z,53.99
2017-11-29T10:25:02.926Z,53.99
2017-11-29T10:30:03.485Z,53.8
2017-11-29T10:35:02.963Z,53.7
2017-11-29T10:40:03.577Z,53.61
2017-11-29T10:45:03.028Z,53.52
2017-11-29T10:50:03.596Z,53.42
2017-11-29T10:55:03.031Z,53.33
2017-11-29T11:00:03.618Z,53.14
2017-11-29T11:05:03.182Z,52.88
2017-11-29T11:10:02.954Z,52.69
2017-11-29T11:15:03.495Z,52.5
2017-11-29T11:20:03.157Z,52.41
2017-11-29T11:25:02.756Z,52.31
2017-11-29T11:30:03.353Z,52.12
2017-11-29T11:35:02.807Z,52.03
2017-11-29T11:40:03.389Z,51.93
2017-11-29T11:45:02.821Z,51.93
2017-11-29T11:50:03.398Z,51.93
2017-11-29T11:55:03.023Z,51.93
2017-11-29T12:00:03.572Z,51.93
2017-11-29T12:05:02.978Z,51.87
2017-11-29T12:10:03.686Z,52.06
2017-11-29T12:15:03.158Z,52.34
2017-11-29T12:20:03.770Z,52.72
2017-11-29T12:25:03.343Z,53.28
2017-11-29T12:30:03.770Z,53.85
2017-11-29T12:35:03.197Z,54.42
2017-11-29T12:40:02.864Z,54.99
2017-11-29T12:45:03.590Z,55.08
2017-11-29T12:50:03.113Z,55.46
2017-11-29T12:55:03.716Z,55.65
2017-11-29T13:00:03.170Z,55.65
2017-11-29T13:05:03.752Z,55.75
2017-11-29T13:10:03.515Z,56.41
2017-11-29T13:15:02.961Z,56.6
2017-11-29T13:20:03.569Z,57.17
2017-11-29T13:25:03.040Z,57.73
2017-11-29T13:30:03.612Z,58.33
2017-11-29T13:35:03.237Z,59.19
2017-11-29T13:40:03.763Z,59.56
2017-11-29T13:45:03.407Z,59.38
2017-11-29T13:50:02.887Z,59.19
2017-11-29T13:55:03.513Z,59
2017-11-29T14:00:03.191Z,59.09
2017-11-29T14:05:03.725Z,59.47
2017-11-29T14:10:03.340Z,60.22
2017-11-29T14:15:03.191Z,60.51
2017-11-29T14:20:03.774Z,61.46
2017-11-29T14:25:03.396Z,62.59
2017-11-29T14:30:03.000Z,64.3
2017-11-29T14:35:03.642Z,65.15
2017-11-29T14:40:03.221Z,65.91
2017-11-29T14:45:02.829Z,66.47
2017-11-29T14:50:03.563Z,67.52
2017-11-29T14:55:03.014Z,68.46
2017-11-29T15:00:03.496Z,69.51
2017-11-29T15:05:03.079Z,69.98
2017-11-29T15:10:03.740Z,70.07
2017-11-29T15:15:03.334Z,69.79
2017-11-29T15:20:03.051Z,69.41
2017-11-29T15:25:03.531Z,68.56
2017-11-29T15:30:03.043Z,67.9
2017-11-29T15:35:03.544Z,67.61
2017-11-29T15:40:03.189Z,67.49
2017-11-29T15:45:03.667Z,67.3
2017-11-29T15:50:03.241Z,67.11
2017-11-29T15:55:03.657Z,67.01
2017-11-29T16:00:03.289Z,67.01
2017-11-29T16:05:02.931Z,67.3
2017-11-29T16:10:03.426Z,67.68
2017-11-29T16:15:03.022Z,67.49
2017-11-29T16:20:03.530Z,67.45
2017-11-29T16:25:03.035Z,67.26
2017-11-29T16:30:03.520Z,67.17
2017-11-29T16:35:03.057Z,66.22
2017-11-29T16:40:03.604Z,66.13
2017-11-29T16:45:03.151Z,65.37
2017-11-29T16:50:03.764Z,65.09
2017-11-29T16:55:03.510Z,64.9
2017-11-29T17:00:03.076Z,64.9
2017-11-29T17:05:03.544Z,64.71
2017-11-29T17:10:03.039Z,64.14
2017-11-29T17:15:03.636Z,63.85
2017-11-29T17:20:03.121Z,63.29
2017-11-29T17:25:03.566Z,62.72
2017-11-29T17:35:03.512Z,61.21
2017-11-29T17:40:03.018Z,60.55
2017-11-29T17:45:03.775Z,60.26
2017-11-29T17:50:03.343Z,60.55
2017-11-29T17:55:02.898Z,60.26
2017-11-29T18:00:03.401Z,60.26
2017-11-29T18:05:02.911Z,60.36
2017-11-29T18:10:03.444Z,60.07
2017-11-29T18:15:03.142Z,59.98
2017-11-29T18:20:03.650Z,59.6
2017-11-29T18:25:03.258Z,59.5
2017-11-29T18:30:03.827Z,59.41
2017-11-29T18:35:03.407Z,59.41
2017-11-29T18:40:03.156Z,59.69
2017-11-29T18:45:02.847Z,59.79
2017-11-29T18:50:03.552Z,59.88
2017-11-29T18:55:03.141Z,60.07
2017-11-29T19:00:03.644Z,60.55
2017-11-29T19:05:03.208Z,60.45
2017-11-29T19:10:02.872Z,60.17
2017-11-29T19:15:03.583Z,59.79
2017-11-29T19:20:03.105Z,60.23
2017-11-29T19:25:03.768Z,60.14
2017-11-29T19:30:03.377Z,59.85
2017-11-29T19:35:03.034Z,59.66
2017-11-29T19:40:03.635Z,59.66
2017-11-29T19:45:03.251Z,59.66
2017-11-29T19:50:03.746Z,59.95
2017-11-29T19:55:03.390Z,60.14
2017-11-29T20:00:02.913Z,60.23
2017-11-29T20:05:03.598Z,60.23
2017-11-29T20:10:03.096Z,59.85
2017-11-29T20:15:03.704Z,59.76
2017-11-29T20:20:03.211Z,59.47
2017-11-29T20:25:03.654Z,59.57
2017-11-29T20:30:03.282Z,60.14
2017-11-29T20:35:02.877Z,59.95
2017-11-29T20:40:03.445Z,60.04
2017-11-29T20:45:03.097Z,59.85
2017-11-29T20:50:03.671Z,60.04
2017-11-29T20:55:03.345Z,60.04
2017-11-29T21:00:02.947Z,59.76
2017-11-29T21:05:03.591Z,59.57
2017-11-29T21:10:03.169Z,59.66
2017-11-29T21:15:03.721Z,60.42
2017-11-29T21:20:03.227Z,60.14
2017-11-29T21:25:03.717Z,59.85
2017-11-29T21:30:03.191Z,59.95
2017-11-29T21:35:02.858Z,59.28
2017-11-29T21:40:03.342Z,59
2017-11-29T21:45:03.698Z,59
2017-11-29T21:50:03.389Z,58.91
2017-11-29T21:55:03.099Z,58.53
2017-11-29T22:00:03.949Z,58.34
2017-11-29T22:05:03.590Z,57.96
2017-11-29T22:10:03.084Z,57.77
2017-11-29T22:15:03.751Z,57.58
2017-11-29T22:20:03.208Z,57.2
2017-11-29T22:25:03.908Z,56.92
2017-11-29T22:30:03.359Z,56.73
2017-11-29T22:35:02.967Z,56.73
2017-11-29T22:40:03.683Z,56.63
2017-11-29T22:45:03.285Z,56.54
2017-11-29T22:50:02.943Z,56.45
2017-11-29T22:55:03.551Z,56.16
2017-11-29T23:00:02.992Z,56.01
2017-11-29T23:05:03.444Z,55.91
2017-11-29T23:10:03.176Z,55.82
2017-11-29T23:15:03.720Z,55.72
2017-11-29T23:20:03.357Z,55.63
2017-11-29T23:25:02.845Z,55.53
2017-11-29T23:30:03.521Z,55.44
2017-11-29T23:35:03.127Z,55.34
2017-11-29T23:40:03.582Z,55.25
2017-11-29T23:45:03.217Z,55.06
2017-11-29T23:50:02.903Z,55.06
2017-11-29T23:55:03.462Z,54.96
